sensor_id;sensor_type;location;lat;lon;timestamp;pressure;altitude;pressure_sealevel;temperature;humidity
45621;BME280;31345;51.522;10.702;2022-08-21T00:00:21;99171.22;;;17.43;100.00
45621;BME280;31345;51.522;10.702;2022-08-21T00:02:51;99165.72;;;17.74;100.00
45621;BME280;31345;51.522;10.702;2022-08-21T00:05:21;99164.22;;;17.62;100.00
45621;BME280;31345;51.522;10.702;2022-08-21T00:07:49;99174.59;;;17.73;100.00
45621;BME280;31345;51.522;10.702;2022-08-21T00:10:18;99173.94;;;17.04;100.00
45621;BME280;31345;51.522;10.702;2022-08-21T00:12:46;99170.03;;;16.98;100.00
45621;BME280;31345;51.522;10.702;2022-08-21T00:15:20;99164.75;;;16.88;100.00
45621;BME280;31345;51.522;10.702;2022-08-21T00:17:48;99161.97;;;16.90;100.00
45621;BME280;31345;51.522;10.702;2022-08-21T00:20:16;99165.88;;;16.85;100.00
45621;BME280;31345;51.522;10.702;2022-08-21T00:22:45;99157.41;;;16.62;100.00
45621;BME280;31345;51.522;10.702;2022-08-21T00:25:14;99159.75;;;16.85;100.00
45621;BME280;31345;51.522;10.702;2022-08-21T00:27:43;99164.34;;;16.93;100.00
45621;BME280;31345;51.522;10.702;2022-08-21T00:30:13;99167.00;;;16.93;100.00
45621;BME280;31345;51.522;10.702;2022-08-21T00:32:42;99166.53;;;17.07;100.00
45621;BME280;31345;51.522;10.702;2022-08-21T00:35:12;99166.00;;;17.04;100.00
45621;BME280;31345;51.522;10.702;2022-08-21T00:37:41;99176.16;;;16.59;100.00
45621;BME280;31345;51.522;10.702;2022-08-21T00:40:14;99167.00;;;16.83;100.00
45621;BME280;31345;51.522;10.702;2022-08-21T00:42:42;99176.03;;;16.61;100.00
45621;BME280;31345;51.522;10.702;2022-08-21T00:45:10;99167.81;;;16.64;100.00
45621;BME280;31345;51.522;10.702;2022-08-21T00:47:38;99164.75;;;16.49;100.00
45621;BME280;31345;51.522;10.702;2022-08-21T00:50:08;99172.78;;;16.27;100.00
45621;BME280;31345;51.522;10.702;2022-08-21T00:52:37;99172.44;;;16.11;100.00
45621;BME280;31345;51.522;10.702;2022-08-21T00:55:07;99165.19;;;15.93;100.00
45621;BME280;31345;51.522;10.702;2022-08-21T00:57:42;99170.59;;;15.91;100.00
45621;BME280;31345;51.522;10.702;2022-08-21T01:00:15;99161.63;;;16.14;100.00
45621;BME280;31345;51.522;10.702;2022-08-21T01:02:43;99161.56;;;15.94;100.00
45621;BME280;31345;51.522;10.702;2022-08-21T01:05:12;99170.75;;;16.00;100.00
45621;BME280;31345;51.522;10.702;2022-08-21T01:07:40;99163.63;;;16.31;100.00
45621;BME280;31345;51.522;10.702;2022-08-21T01:10:08;99166.63;;;15.76;100.00
45621;BME280;31345;51.522;10.702;2022-08-21T01:12:37;99167.13;;;15.60;100.00
45621;BME280;31345;51.522;10.702;2022-08-21T01:15:08;99165.16;;;15.83;100.00
45621;BME280;31345;51.522;10.702;2022-08-21T01:17:36;99165.44;;;15.90;100.00
45621;BME280;31345;51.522;10.702;2022-08-21T01:20:07;99158.91;;;15.84;100.00
45621;BME280;31345;51.522;10.702;2022-08-21T01:22:36;99167.19;;;15.79;100.00
45621;BME280;31345;51.522;10.702;2022-08-21T01:25:07;99171.63;;;15.69;100.00
45621;BME280;31345;51.522;10.702;2022-08-21T01:27:35;99168.09;;;15.59;100.00
45621;BME280;31345;51.522;10.702;2022-08-21T01:30:09;99165.63;;;15.67;100.00
45621;BME280;31345;51.522;10.702;2022-08-21T01:32:38;99161.06;;;15.69;100.00
45621;BME280;31345;51.522;10.702;2022-08-21T01:35:07;99170.56;;;15.81;100.00
45621;BME280;31345;51.522;10.702;2022-08-21T01:37:36;99168.22;;;15.88;100.00
45621;BME280;31345;51.522;10.702;2022-08-21T01:40:05;99167.13;;;15.60;100.00
45621;BME280;31345;51.522;10.702;2022-08-21T01:42:34;99170.63;;;15.70;100.00
45621;BME280;31345;51.522;10.702;2022-08-21T01:45:02;99170.28;;;15.53;100.00
45621;BME280;31345;51.522;10.702;2022-08-21T01:47:30;99170.00;;;15.78;100.00
45621;BME280;31345;51.522;10.702;2022-08-21T01:49:59;99168.34;;;15.55;100.00
45621;BME280;31345;51.522;10.702;2022-08-21T01:52:28;99169.56;;;15.51;100.00
45621;BME280;31345;51.522;10.702;2022-08-21T01:54:57;99163.41;;;15.62;100.00
45621;BME280;31345;51.522;10.702;2022-08-21T01:57:24;99168.78;;;15.92;100.00
45621;BME280;31345;51.522;10.702;2022-08-21T01:59:52;99167.56;;;15.65;100.00
45621;BME280;31345;51.522;10.702;2022-08-21T02:02:20;99163.47;;;15.82;100.00
45621;BME280;31345;51.522;10.702;2022-08-21T02:04:47;99162.09;;;15.47;100.00
45621;BME280;31345;51.522;10.702;2022-08-21T02:07:15;99153.72;;;15.41;100.00
45621;BME280;31345;51.522;10.702;2022-08-21T02:09:43;99170.72;;;15.59;100.00
45621;BME280;31345;51.522;10.702;2022-08-21T02:12:11;99163.75;;;15.48;100.00
45621;BME280;31345;51.522;10.702;2022-08-21T02:14:39;99153.00;;;15.61;100.00
45621;BME280;31345;51.522;10.702;2022-08-21T02:17:07;99161.19;;;15.15;100.00
45621;BME280;31345;51.522;10.702;2022-08-21T02:19:34;99163.19;;;15.23;100.00
45621;BME280;31345;51.522;10.702;2022-08-21T02:22:04;99153.16;;;15.38;100.00
45621;BME280;31345;51.522;10.702;2022-08-21T02:24:31;99155.53;;;15.41;100.00
45621;BME280;31345;51.522;10.702;2022-08-21T02:26:59;99156.91;;;15.66;100.00
45621;BME280;31345;51.522;10.702;2022-08-21T02:29:28;99162.72;;;15.70;100.00
45621;BME280;31345;51.522;10.702;2022-08-21T02:31:55;99159.09;;;15.30;100.00
45621;BME280;31345;51.522;10.702;2022-08-21T02:34:23;99159.78;;;15.63;100.00
45621;BME280;31345;51.522;10.702;2022-08-21T02:36:51;99166.34;;;15.69;100.00
45621;BME280;31345;51.522;10.702;2022-08-21T02:39:18;99154.66;;;15.62;100.00
45621;BME280;31345;51.522;10.702;2022-08-21T02:41:47;99168.53;;;15.33;100.00
45621;BME280;31345;51.522;10.702;2022-08-21T02:44:14;99161.91;;;15.17;100.00
45621;BME280;31345;51.522;10.702;2022-08-21T02:46:43;99156.03;;;14.92;100.00
45621;BME280;31345;51.522;10.702;2022-08-21T02:49:11;99158.19;;;14.87;100.00
45621;BME280;31345;51.522;10.702;2022-08-21T02:51:38;99166.66;;;15.23;100.00
45621;BME280;31345;51.522;10.702;2022-08-21T02:54:06;99163.75;;;15.05;100.00
45621;BME280;31345;51.522;10.702;2022-08-21T02:56:33;99161.88;;;14.96;100.00
45621;BME280;31345;51.522;10.702;2022-08-21T02:59:01;99165.59;;;15.04;100.00
45621;BME280;31345;51.522;10.702;2022-08-21T03:01:30;99164.06;;;14.90;100.00
45621;BME280;31345;51.522;10.702;2022-08-21T03:03:59;99163.31;;;14.67;100.00
45621;BME280;31345;51.522;10.702;2022-08-21T03:06:27;99158.41;;;14.95;100.00
45621;BME280;31345;51.522;10.702;2022-08-21T03:08:55;99160.63;;;15.11;100.00
45621;BME280;31345;51.522;10.702;2022-08-21T03:11:23;99158.75;;;15.23;100.00
45621;BME280;31345;51.522;10.702;2022-08-21T03:13:51;99153.09;;;15.07;100.00
45621;BME280;31345;51.522;10.702;2022-08-21T03:16:19;99152.72;;;14.57;100.00
45621;BME280;31345;51.522;10.702;2022-08-21T03:18:47;99150.13;;;14.46;100.00
45621;BME280;31345;51.522;10.702;2022-08-21T03:21:16;99141.81;;;14.62;100.00
45621;BME280;31345;51.522;10.702;2022-08-21T03:23:45;99149.50;;;14.86;100.00
45621;BME280;31345;51.522;10.702;2022-08-21T03:26:12;99148.19;;;14.81;100.00
45621;BME280;31345;51.522;10.702;2022-08-21T03:28:40;99152.28;;;14.73;100.00
45621;BME280;31345;51.522;10.702;2022-08-21T03:31:07;99150.34;;;14.54;100.00
45621;BME280;31345;51.522;10.702;2022-08-21T03:33:35;99146.97;;;14.85;100.00
45621;BME280;31345;51.522;10.702;2022-08-21T03:36:06;99147.44;;;14.90;100.00
45621;BME280;31345;51.522;10.702;2022-08-21T03:38:36;99153.97;;;14.96;100.00
45621;BME280;31345;51.522;10.702;2022-08-21T03:41:05;99150.19;;;14.88;100.00
45621;BME280;31345;51.522;10.702;2022-08-21T03:43:33;99158.31;;;14.64;100.00
45621;BME280;31345;51.522;10.702;2022-08-21T03:46:02;99157.94;;;14.36;100.00
45621;BME280;31345;51.522;10.702;2022-08-21T03:48:32;99156.00;;;14.38;100.00
45621;BME280;31345;51.522;10.702;2022-08-21T03:51:00;99155.44;;;14.23;100.00
45621;BME280;31345;51.522;10.702;2022-08-21T03:53:28;99162.00;;;14.40;100.00
45621;BME280;31345;51.522;10.702;2022-08-21T03:55:58;99160.75;;;14.56;100.00
45621;BME280;31345;51.522;10.702;2022-08-21T03:58:27;99154.56;;;14.78;100.00
45621;BME280;31345;51.522;10.702;2022-08-21T04:00:56;99165.59;;;14.27;100.00
45621;BME280;31345;51.522;10.702;2022-08-21T04:03:25;99167.72;;;14.45;100.00
45621;BME280;31345;51.522;10.702;2022-08-21T04:05:53;99160.66;;;14.46;100.00
45621;BME280;31345;51.522;10.702;2022-08-21T04:08:20;99172.34;;;13.97;100.00
45621;BME280;31345;51.522;10.702;2022-08-21T04:10:51;99170.41;;;14.11;100.00
45621;BME280;31345;51.522;10.702;2022-08-21T04:13:21;99179.78;;;14.36;100.00
45621;BME280;31345;51.522;10.702;2022-08-21T04:15:49;99185.78;;;14.71;100.00
45621;BME280;31345;51.522;10.702;2022-08-21T04:18:17;99186.19;;;14.66;100.00
45621;BME280;31345;51.522;10.702;2022-08-21T04:20:46;99181.63;;;14.36;100.00
45621;BME280;31345;51.522;10.702;2022-08-21T04:23:15;99185.72;;;14.06;100.00
45621;BME280;31345;51.522;10.702;2022-08-21T04:25:43;99189.97;;;14.41;100.00
45621;BME280;31345;51.522;10.702;2022-08-21T04:28:10;99191.16;;;14.37;100.00
45621;BME280;31345;51.522;10.702;2022-08-21T04:30:39;99196.22;;;14.29;100.00
45621;BME280;31345;51.522;10.702;2022-08-21T04:33:07;99191.13;;;14.48;100.00
45621;BME280;31345;51.522;10.702;2022-08-21T04:35:35;99195.69;;;14.46;100.00
45621;BME280;31345;51.522;10.702;2022-08-21T04:38:03;99197.03;;;14.29;100.00
45621;BME280;31345;51.522;10.702;2022-08-21T04:40:30;99193.09;;;14.23;100.00
45621;BME280;31345;51.522;10.702;2022-08-21T04:43:01;99193.06;;;14.35;100.00
45621;BME280;31345;51.522;10.702;2022-08-21T04:45:32;99198.63;;;13.97;100.00
45621;BME280;31345;51.522;10.702;2022-08-21T04:48:04;99194.31;;;14.08;100.00
45621;BME280;31345;51.522;10.702;2022-08-21T04:50:37;99195.91;;;14.43;100.00
45621;BME280;31345;51.522;10.702;2022-08-21T04:53:15;99199.41;;;14.32;100.00
45621;BME280;31345;51.522;10.702;2022-08-21T04:55:45;99204.91;;;14.29;100.00
45621;BME280;31345;51.522;10.702;2022-08-21T04:58:17;99204.69;;;14.09;100.00
45621;BME280;31345;51.522;10.702;2022-08-21T05:00:47;99207.22;;;13.99;100.00
45621;BME280;31345;51.522;10.702;2022-08-21T05:03:17;99207.41;;;14.42;100.00
45621;BME280;31345;51.522;10.702;2022-08-21T05:05:45;99212.06;;;14.50;100.00
45621;BME280;31345;51.522;10.702;2022-08-21T05:08:15;99216.63;;;14.25;100.00
45621;BME280;31345;51.522;10.702;2022-08-21T05:10:45;99218.22;;;14.05;100.00
45621;BME280;31345;51.522;10.702;2022-08-21T05:13:13;99225.38;;;14.25;100.00
45621;BME280;31345;51.522;10.702;2022-08-21T05:15:41;99219.56;;;14.55;100.00
45621;BME280;31345;51.522;10.702;2022-08-21T05:18:09;99219.50;;;14.33;100.00
45621;BME280;31345;51.522;10.702;2022-08-21T05:20:38;99218.16;;;14.39;100.00
45621;BME280;31345;51.522;10.702;2022-08-21T05:23:07;99220.66;;;14.52;100.00
45621;BME280;31345;51.522;10.702;2022-08-21T05:25:35;99223.53;;;14.49;100.00
45621;BME280;31345;51.522;10.702;2022-08-21T05:28:03;99228.53;;;14.63;100.00
45621;BME280;31345;51.522;10.702;2022-08-21T05:30:32;99232.09;;;14.74;100.00
45621;BME280;31345;51.522;10.702;2022-08-21T05:33:01;99230.41;;;14.73;100.00
45621;BME280;31345;51.522;10.702;2022-08-21T05:35:29;99228.38;;;14.76;100.00
45621;BME280;31345;51.522;10.702;2022-08-21T05:38:00;99226.84;;;14.95;100.00
45621;BME280;31345;51.522;10.702;2022-08-21T05:40:27;99226.84;;;15.07;100.00
45621;BME280;31345;51.522;10.702;2022-08-21T05:42:55;99232.13;;;15.28;100.00
45621;BME280;31345;51.522;10.702;2022-08-21T05:45:24;99229.13;;;15.33;100.00
45621;BME280;31345;51.522;10.702;2022-08-21T05:47:52;99229.25;;;15.31;100.00
45621;BME280;31345;51.522;10.702;2022-08-21T05:50:20;99225.50;;;15.34;100.00
45621;BME280;31345;51.522;10.702;2022-08-21T05:52:48;99223.78;;;15.44;100.00
45621;BME280;31345;51.522;10.702;2022-08-21T05:55:17;99228.56;;;15.60;100.00
45621;BME280;31345;51.522;10.702;2022-08-21T05:57:44;99228.47;;;15.93;100.00
45621;BME280;31345;51.522;10.702;2022-08-21T06:00:13;99226.03;;;16.11;100.00
45621;BME280;31345;51.522;10.702;2022-08-21T06:02:41;99227.03;;;16.20;100.00
45621;BME280;31345;51.522;10.702;2022-08-21T06:05:08;99227.72;;;16.22;100.00
45621;BME280;31345;51.522;10.702;2022-08-21T06:07:36;99231.44;;;16.41;100.00
45621;BME280;31345;51.522;10.702;2022-08-21T06:10:04;99224.34;;;16.61;100.00
45621;BME280;31345;51.522;10.702;2022-08-21T06:12:33;99223.84;;;16.77;100.00
45621;BME280;31345;51.522;10.702;2022-08-21T06:15:01;99218.41;;;16.79;100.00
45621;BME280;31345;51.522;10.702;2022-08-21T06:17:28;99209.25;;;16.93;100.00
45621;BME280;31345;51.522;10.702;2022-08-21T06:19:56;99216.19;;;17.04;100.00
45621;BME280;31345;51.522;10.702;2022-08-21T06:22:23;99214.22;;;17.16;100.00
45621;BME280;31345;51.522;10.702;2022-08-21T06:24:51;99225.47;;;17.28;100.00
45621;BME280;31345;51.522;10.702;2022-08-21T06:27:18;99221.16;;;17.36;100.00
45621;BME280;31345;51.522;10.702;2022-08-21T06:29:47;99224.75;;;17.55;100.00
45621;BME280;31345;51.522;10.702;2022-08-21T06:32:15;99230.69;;;17.77;100.00
45621;BME280;31345;51.522;10.702;2022-08-21T06:34:43;99222.88;;;17.85;100.00
45621;BME280;31345;51.522;10.702;2022-08-21T06:37:10;99211.41;;;17.95;100.00
45621;BME280;31345;51.522;10.702;2022-08-21T06:39:38;99222.25;;;17.92;100.00
45621;BME280;31345;51.522;10.702;2022-08-21T06:42:06;99224.44;;;18.06;100.00
45621;BME280;31345;51.522;10.702;2022-08-21T06:44:33;99223.91;;;18.03;100.00
45621;BME280;31345;51.522;10.702;2022-08-21T06:47:02;99222.38;;;18.00;100.00
45621;BME280;31345;51.522;10.702;2022-08-21T06:49:30;99221.00;;;17.96;100.00
45621;BME280;31345;51.522;10.702;2022-08-21T06:51:57;99231.31;;;17.89;100.00
45621;BME280;31345;51.522;10.702;2022-08-21T06:54:25;99225.19;;;17.98;100.00
45621;BME280;31345;51.522;10.702;2022-08-21T06:56:53;99220.66;;;18.09;100.00
45621;BME280;31345;51.522;10.702;2022-08-21T06:59:20;99226.66;;;18.11;100.00
45621;BME280;31345;51.522;10.702;2022-08-21T07:01:48;99224.59;;;18.33;100.00
45621;BME280;31345;51.522;10.702;2022-08-21T07:04:23;99222.84;;;18.70;100.00
45621;BME280;31345;51.522;10.702;2022-08-21T07:06:51;99217.25;;;18.73;100.00
45621;BME280;31345;51.522;10.702;2022-08-21T07:09:18;99212.78;;;18.91;100.00
45621;BME280;31345;51.522;10.702;2022-08-21T07:11:49;99212.78;;;18.91;99.15
45621;BME280;31345;51.522;10.702;2022-08-21T07:14:17;99208.91;;;18.86;98.72
45621;BME280;31345;51.522;10.702;2022-08-21T07:16:45;99211.19;;;18.81;100.00
45621;BME280;31345;51.522;10.702;2022-08-21T07:19:13;99218.31;;;18.98;100.00
45621;BME280;31345;51.522;10.702;2022-08-21T07:21:42;99215.13;;;18.95;100.00
45621;BME280;31345;51.522;10.702;2022-08-21T07:24:10;99215.66;;;18.98;100.00
45621;BME280;31345;51.522;10.702;2022-08-21T07:26:37;99216.34;;;18.82;100.00
45621;BME280;31345;51.522;10.702;2022-08-21T07:29:05;99211.88;;;18.64;100.00
45621;BME280;31345;51.522;10.702;2022-08-21T07:31:33;99213.19;;;18.78;99.87
45621;BME280;31345;51.522;10.702;2022-08-21T07:34:00;99212.53;;;19.03;100.00
45621;BME280;31345;51.522;10.702;2022-08-21T07:36:28;99208.22;;;19.20;100.00
45621;BME280;31345;51.522;10.702;2022-08-21T07:38:57;99205.41;;;19.48;100.00
45621;BME280;31345;51.522;10.702;2022-08-21T07:41:27;99205.88;;;19.70;97.09
45621;BME280;31345;51.522;10.702;2022-08-21T07:43:55;99196.97;;;19.71;95.47
45621;BME280;31345;51.522;10.702;2022-08-21T07:46:24;99197.50;;;19.83;96.56
45621;BME280;31345;51.522;10.702;2022-08-21T07:48:52;99197.66;;;20.16;93.90
45621;BME280;31345;51.522;10.702;2022-08-21T07:51:22;99196.41;;;20.45;91.44
45621;BME280;31345;51.522;10.702;2022-08-21T07:53:52;99186.31;;;20.57;92.00
45621;BME280;31345;51.522;10.702;2022-08-21T07:56:22;99186.41;;;20.39;93.21
45621;BME280;31345;51.522;10.702;2022-08-21T07:58:49;99183.97;;;20.54;93.11
45621;BME280;31345;51.522;10.702;2022-08-21T08:01:17;99184.66;;;20.65;92.37
45621;BME280;31345;51.522;10.702;2022-08-21T08:03:46;99174.03;;;20.81;89.90
45621;BME280;31345;51.522;10.702;2022-08-21T08:06:14;99173.72;;;20.68;89.18
45621;BME280;31345;51.522;10.702;2022-08-21T08:08:45;99180.19;;;20.90;85.02
45621;BME280;31345;51.522;10.702;2022-08-21T08:11:12;99169.22;;;21.10;84.27
45621;BME280;31345;51.522;10.702;2022-08-21T08:13:45;99166.88;;;21.15;81.92
45621;BME280;31345;51.522;10.702;2022-08-21T08:16:13;99170.66;;;21.38;82.12
45621;BME280;31345;51.522;10.702;2022-08-21T08:18:41;99171.53;;;21.21;81.62
45621;BME280;31345;51.522;10.702;2022-08-21T08:21:09;99170.03;;;21.35;80.95
45621;BME280;31345;51.522;10.702;2022-08-21T08:23:37;99172.66;;;21.44;81.54
45621;BME280;31345;51.522;10.702;2022-08-21T08:26:05;99157.34;;;21.54;77.24
45621;BME280;31345;51.522;10.702;2022-08-21T08:28:33;99162.41;;;21.89;80.81
45621;BME280;31345;51.522;10.702;2022-08-21T08:31:02;99152.78;;;21.80;72.47
45621;BME280;31345;51.522;10.702;2022-08-21T08:33:30;99159.09;;;21.79;76.71
45621;BME280;31345;51.522;10.702;2022-08-21T08:35:57;99150.75;;;21.90;73.18
45621;BME280;31345;51.522;10.702;2022-08-21T08:38:25;99145.44;;;21.90;67.79
45621;BME280;31345;51.522;10.702;2022-08-21T08:41:00;99144.50;;;22.06;72.03
45621;BME280;31345;51.522;10.702;2022-08-21T08:43:29;99143.63;;;22.14;69.21
45621;BME280;31345;51.522;10.702;2022-08-21T08:46:04;99135.81;;;21.81;66.08
45621;BME280;31345;51.522;10.702;2022-08-21T08:48:46;99142.22;;;22.03;69.23
45621;BME280;31345;51.522;10.702;2022-08-21T08:51:19;99139.75;;;22.25;72.11
45621;BME280;31345;51.522;10.702;2022-08-21T08:53:52;99131.88;;;22.32;67.09
45621;BME280;31345;51.522;10.702;2022-08-21T08:56:31;99132.50;;;22.42;65.72
45621;BME280;31345;51.522;10.702;2022-08-21T08:59:02;99129.53;;;22.37;66.36
45621;BME280;31345;51.522;10.702;2022-08-21T09:01:35;99133.53;;;22.41;69.89
45621;BME280;31345;51.522;10.702;2022-08-21T09:04:03;99140.09;;;22.54;70.23
45621;BME280;31345;51.522;10.702;2022-08-21T09:06:42;99139.22;;;22.76;71.83
45621;BME280;31345;51.522;10.702;2022-08-21T09:09:25;99130.78;;;22.88;71.43
45621;BME280;31345;51.522;10.702;2022-08-21T09:12:01;99122.09;;;22.94;70.38
45621;BME280;31345;51.522;10.702;2022-08-21T09:14:41;99131.31;;;23.07;71.81
45621;BME280;31345;51.522;10.702;2022-08-21T09:17:26;99115.84;;;23.02;69.40
45621;BME280;31345;51.522;10.702;2022-08-21T09:20:09;99127.09;;;23.43;72.22
45621;BME280;31345;51.522;10.702;2022-08-21T09:22:46;99118.81;;;23.52;71.10
45621;BME280;31345;51.522;10.702;2022-08-21T09:25:20;99120.09;;;23.87;70.09
45621;BME280;31345;51.522;10.702;2022-08-21T09:27:49;99113.59;;;23.44;66.60
45621;BME280;31345;51.522;10.702;2022-08-21T09:30:19;99113.88;;;23.49;70.83
45621;BME280;31345;51.522;10.702;2022-08-21T09:32:52;99112.94;;;23.57;70.08
45621;BME280;31345;51.522;10.702;2022-08-21T09:35:21;99106.84;;;23.78;68.09
45621;BME280;31345;51.522;10.702;2022-08-21T09:37:53;99108.88;;;23.76;69.77
45621;BME280;31345;51.522;10.702;2022-08-21T09:40:32;99103.88;;;23.88;66.83
45621;BME280;31345;51.522;10.702;2022-08-21T09:43:03;99106.38;;;23.90;69.34
45621;BME280;31345;51.522;10.702;2022-08-21T09:45:32;99112.00;;;23.80;67.14
45621;BME280;31345;51.522;10.702;2022-08-21T09:48:13;99106.66;;;23.80;68.07
45621;BME280;31345;51.522;10.702;2022-08-21T09:50:42;99111.53;;;23.76;69.05
45621;BME280;31345;51.522;10.702;2022-08-21T09:53:18;99108.25;;;23.29;66.45
45621;BME280;31345;51.522;10.702;2022-08-21T09:55:49;99106.22;;;23.61;69.42
45621;BME280;31345;51.522;10.702;2022-08-21T09:58:37;99107.19;;;24.05;68.31
45621;BME280;31345;51.522;10.702;2022-08-21T10:01:06;99101.63;;;24.51;66.13
45621;BME280;31345;51.522;10.702;2022-08-21T10:03:35;99111.72;;;24.49;66.82
45621;BME280;31345;51.522;10.702;2022-08-21T10:06:05;99109.72;;;23.99;65.63
45621;BME280;31345;51.522;10.702;2022-08-21T10:08:36;99106.69;;;24.39;68.95
45621;BME280;31345;51.522;10.702;2022-08-21T10:11:06;99106.78;;;24.09;66.62
45621;BME280;31345;51.522;10.702;2022-08-21T10:13:44;99115.16;;;23.53;68.74
45621;BME280;31345;51.522;10.702;2022-08-21T10:16:27;99109.66;;;23.55;69.08
45621;BME280;31345;51.522;10.702;2022-08-21T10:19:15;99107.63;;;23.42;71.43
45621;BME280;31345;51.522;10.702;2022-08-21T10:22:04;99103.09;;;23.27;68.80
45621;BME280;31345;51.522;10.702;2022-08-21T10:24:41;99104.19;;;23.18;70.52
45621;BME280;31345;51.522;10.702;2022-08-21T10:27:17;99100.72;;;23.33;70.01
45621;BME280;31345;51.522;10.702;2022-08-21T10:29:53;99102.94;;;23.29;69.52
45621;BME280;31345;51.522;10.702;2022-08-21T10:32:43;99099.66;;;22.88;70.80
45621;BME280;31345;51.522;10.702;2022-08-21T10:35:22;99104.44;;;22.55;72.26
45621;BME280;31345;51.522;10.702;2022-08-21T10:38:05;99096.50;;;22.23;72.60
45621;BME280;31345;51.522;10.702;2022-08-21T10:40:42;99089.38;;;22.15;72.24
45621;BME280;31345;51.522;10.702;2022-08-21T10:43:20;99099.38;;;22.13;75.04
45621;BME280;31345;51.522;10.702;2022-08-21T10:45:55;99090.69;;;22.19;74.67
45621;BME280;31345;51.522;10.702;2022-08-21T10:48:29;99091.72;;;22.65;73.93
45621;BME280;31345;51.522;10.702;2022-08-21T10:51:09;99087.97;;;23.05;66.97
45621;BME280;31345;51.522;10.702;2022-08-21T10:53:57;99079.72;;;23.60;66.09
45621;BME280;31345;51.522;10.702;2022-08-21T10:56:29;99071.38;;;23.85;63.82
45621;BME280;31345;51.522;10.702;2022-08-21T10:59:18;99078.56;;;23.84;63.74
45621;BME280;31345;51.522;10.702;2022-08-21T11:01:55;99078.16;;;24.02;62.48
45621;BME280;31345;51.522;10.702;2022-08-21T11:04:26;99082.66;;;24.02;61.63
45621;BME280;31345;51.522;10.702;2022-08-21T11:07:01;99077.28;;;24.39;62.48
45621;BME280;31345;51.522;10.702;2022-08-21T11:09:30;99068.25;;;24.62;59.56
45621;BME280;31345;51.522;10.702;2022-08-21T11:12:02;99065.22;;;25.00;60.55
45621;BME280;31345;51.522;10.702;2022-08-21T11:14:41;99063.56;;;24.92;61.72
45621;BME280;31345;51.522;10.702;2022-08-21T11:17:17;99070.50;;;24.87;60.54
45621;BME280;31345;51.522;10.702;2022-08-21T11:19:50;99077.91;;;25.20;59.90
45621;BME280;31345;51.522;10.702;2022-08-21T11:22:26;99065.56;;;25.19;58.93
45621;BME280;31345;51.522;10.702;2022-08-21T11:25:00;99060.59;;;25.16;58.67
45621;BME280;31345;51.522;10.702;2022-08-21T11:27:36;99055.97;;;25.38;59.44
45621;BME280;31345;51.522;10.702;2022-08-21T11:30:07;99055.38;;;25.43;55.13
45621;BME280;31345;51.522;10.702;2022-08-21T11:32:53;99044.66;;;25.36;56.82
45621;BME280;31345;51.522;10.702;2022-08-21T11:35:33;99049.66;;;25.59;58.85
45621;BME280;31345;51.522;10.702;2022-08-21T11:38:16;99044.81;;;25.70;55.56
45621;BME280;31345;51.522;10.702;2022-08-21T11:41:06;99049.34;;;25.76;53.47
45621;BME280;31345;51.522;10.702;2022-08-21T11:43:39;99043.59;;;25.79;53.88
45621;BME280;31345;51.522;10.702;2022-08-21T11:46:17;99048.19;;;26.26;54.05
45621;BME280;31345;51.522;10.702;2022-08-21T11:48:56;99044.31;;;26.49;54.88
45621;BME280;31345;51.522;10.702;2022-08-21T11:51:32;99037.72;;;26.52;52.08
45621;BME280;31345;51.522;10.702;2022-08-21T11:54:06;99037.06;;;26.16;54.72
45621;BME280;31345;51.522;10.702;2022-08-21T11:56:38;99037.47;;;26.33;56.67
45621;BME280;31345;51.522;10.702;2022-08-21T11:59:20;99040.81;;;26.42;52.24
45621;BME280;31345;51.522;10.702;2022-08-21T12:01:51;99039.44;;;25.70;56.44
45621;BME280;31345;51.522;10.702;2022-08-21T12:04:26;99039.59;;;24.84;58.73
45621;BME280;31345;51.522;10.702;2022-08-21T12:06:55;99048.41;;;24.49;60.09
45621;BME280;31345;51.522;10.702;2022-08-21T12:09:33;99049.06;;;24.29;61.28
45621;BME280;31345;51.522;10.702;2022-08-21T12:12:11;99043.91;;;23.69;62.81
45621;BME280;31345;51.522;10.702;2022-08-21T12:14:41;99049.13;;;23.77;60.84
45621;BME280;31345;51.522;10.702;2022-08-21T12:17:19;99051.63;;;23.64;65.01
45621;BME280;31345;51.522;10.702;2022-08-21T12:19:57;99047.28;;;24.15;64.47
45621;BME280;31345;51.522;10.702;2022-08-21T12:22:36;99037.19;;;24.89;62.16
45621;BME280;31345;51.522;10.702;2022-08-21T12:25:08;99036.91;;;25.13;58.48
45621;BME280;31345;51.522;10.702;2022-08-21T12:27:45;99035.41;;;25.45;57.38
45621;BME280;31345;51.522;10.702;2022-08-21T12:30:22;99032.16;;;25.50;54.49
45621;BME280;31345;51.522;10.702;2022-08-21T12:32:56;99025.69;;;25.93;56.54
45621;BME280;31345;51.522;10.702;2022-08-21T12:35:27;99025.94;;;26.05;56.43
45621;BME280;31345;51.522;10.702;2022-08-21T12:38:06;99022.97;;;25.24;54.26
45621;BME280;31345;51.522;10.702;2022-08-21T12:40:40;99029.94;;;24.83;56.29
45621;BME280;31345;51.522;10.702;2022-08-21T12:43:13;99022.69;;;24.77;54.69
45621;BME280;31345;51.522;10.702;2022-08-21T12:45:44;99026.34;;;24.98;57.31
45621;BME280;31345;51.522;10.702;2022-08-21T12:48:18;99033.28;;;24.92;57.72
45621;BME280;31345;51.522;10.702;2022-08-21T12:50:50;99027.75;;;25.36;57.89
45621;BME280;31345;51.522;10.702;2022-08-21T12:53:25;99018.81;;;25.64;56.65
45621;BME280;31345;51.522;10.702;2022-08-21T12:55:56;99016.50;;;25.54;54.56
45621;BME280;31345;51.522;10.702;2022-08-21T12:58:27;99012.50;;;25.85;53.69
45621;BME280;31345;51.522;10.702;2022-08-21T13:00:58;99003.81;;;25.83;50.25